sensor_id;sensor_type;location;lat;lon;timestamp;temperature;humidity
2861;DHT22;1438;50.922;6.704;2022-09-27T00:00:36;10.10;99.90
2861;DHT22;1438;50.922;6.704;2022-09-27T00:03:02;10.10;99.90
2861;DHT22;1438;50.922;6.704;2022-09-27T00:05:28;10.10;99.90
2861;DHT22;1438;50.922;6.704;2022-09-27T00:07:54;10.10;99.90
2861;DHT22;1438;50.922;6.704;2022-09-27T00:10:20;10.00;99.90
2861;DHT22;1438;50.922;6.704;2022-09-27T00:12:46;10.00;99.90
2861;DHT22;1438;50.922;6.704;2022-09-27T00:15:13;10.00;99.90
2861;DHT22;1438;50.922;6.704;2022-09-27T00:17:39;10.00;99.90
2861;DHT22;1438;50.922;6.704;2022-09-27T00:20:06;10.00;99.90
2861;DHT22;1438;50.922;6.704;2022-09-27T00:22:35;10.00;99.90
2861;DHT22;1438;50.922;6.704;2022-09-27T00:25:00;10.00;99.90
2861;DHT22;1438;50.922;6.704;2022-09-27T00:27:30;10.00;99.90
2861;DHT22;1438;50.922;6.704;2022-09-27T00:29:56;10.00;99.90
2861;DHT22;1438;50.922;6.704;2022-09-27T00:32:21;9.90;99.90
2861;DHT22;1438;50.922;6.704;2022-09-27T00:34:47;9.90;99.90
2861;DHT22;1438;50.922;6.704;2022-09-27T00:37:13;9.90;99.90
2861;DHT22;1438;50.922;6.704;2022-09-27T00:39:38;9.90;99.90
2861;DHT22;1438;50.922;6.704;2022-09-27T00:42:07;9.80;99.90
2861;DHT22;1438;50.922;6.704;2022-09-27T00:50:07;9.80;99.90
2861;DHT22;1438;50.922;6.704;2022-09-27T00:52:44;9.80;99.90
2861;DHT22;1438;50.922;6.704;2022-09-27T00:55:20;9.70;99.90
2861;DHT22;1438;50.922;6.704;2022-09-27T00:57:46;9.70;99.90
2861;DHT22;1438;50.922;6.704;2022-09-27T01:00:14;9.70;99.90
2861;DHT22;1438;50.922;6.704;2022-09-27T01:02:43;9.70;99.90
2861;DHT22;1438;50.922;6.704;2022-09-27T01:05:11;9.70;99.90
2861;DHT22;1438;50.922;6.704;2022-09-27T01:07:38;9.70;99.90
2861;DHT22;1438;50.922;6.704;2022-09-27T01:10:04;9.70;99.90
2861;DHT22;1438;50.922;6.704;2022-09-27T01:15:38;9.70;99.90
2861;DHT22;1438;50.922;6.704;2022-09-27T01:35:04;9.70;99.90
2861;DHT22;1438;50.922;6.704;2022-09-27T01:37:51;9.70;99.90
2861;DHT22;1438;50.922;6.704;2022-09-27T01:40:23;9.70;99.90
2861;DHT22;1438;50.922;6.704;2022-09-27T01:43:15;9.70;99.90
2861;DHT22;1438;50.922;6.704;2022-09-27T01:45:57;9.60;99.90
2861;DHT22;1438;50.922;6.704;2022-09-27T01:48:31;9.70;99.90
2861;DHT22;1438;50.922;6.704;2022-09-27T01:51:19;9.70;99.90
2861;DHT22;1438;50.922;6.704;2022-09-27T01:53:50;9.70;99.90
2861;DHT22;1438;50.922;6.704;2022-09-27T01:57:02;9.70;99.90
2861;DHT22;1438;50.922;6.704;2022-09-27T01:59:21;9.70;99.90
2861;DHT22;1438;50.922;6.704;2022-09-27T02:01:55;9.70;99.90
2861;DHT22;1438;50.922;6.704;2022-09-27T02:04:27;9.70;99.90
2861;DHT22;1438;50.922;6.704;2022-09-27T02:07:00;9.70;99.90
2861;DHT22;1438;50.922;6.704;2022-09-27T02:09:31;9.70;99.90
2861;DHT22;1438;50.922;6.704;2022-09-27T02:12:03;9.70;99.90
2861;DHT22;1438;50.922;6.704;2022-09-27T02:22:44;9.70;99.90
2861;DHT22;1438;50.922;6.704;2022-09-27T02:25:22;9.70;99.90
2861;DHT22;1438;50.922;6.704;2022-09-27T02:30:20;9.70;99.90
2861;DHT22;1438;50.922;6.704;2022-09-27T02:32:45;9.70;99.90
2861;DHT22;1438;50.922;6.704;2022-09-27T02:35:27;9.60;99.90
2861;DHT22;1438;50.922;6.704;2022-09-27T02:37:54;9.60;99.90
2861;DHT22;1438;50.922;6.704;2022-09-27T02:40:21;9.60;99.90
2861;DHT22;1438;50.922;6.704;2022-09-27T02:42:47;9.60;99.90
2861;DHT22;1438;50.922;6.704;2022-09-27T02:45:15;9.50;99.90
2861;DHT22;1438;50.922;6.704;2022-09-27T02:56:31;9.50;99.90
2861;DHT22;1438;50.922;6.704;2022-09-27T02:59:32;9.40;99.90
2861;DHT22;1438;50.922;6.704;2022-09-27T03:02:22;9.40;99.90
2861;DHT22;1438;50.922;6.704;2022-09-27T03:04:56;9.40;99.90
2861;DHT22;1438;50.922;6.704;2022-09-27T03:07:24;9.40;99.90
2861;DHT22;1438;50.922;6.704;2022-09-27T03:09:52;9.30;99.90
2861;DHT22;1438;50.922;6.704;2022-09-27T03:12:19;9.20;99.90
2861;DHT22;1438;50.922;6.704;2022-09-27T03:14:54;9.20;99.90
2861;DHT22;1438;50.922;6.704;2022-09-27T03:17:20;9.20;99.90
2861;DHT22;1438;50.922;6.704;2022-09-27T03:19:47;9.20;99.90
2861;DHT22;1438;50.922;6.704;2022-09-27T03:22:13;9.20;99.90
2861;DHT22;1438;50.922;6.704;2022-09-27T03:24:38;9.20;99.90
2861;DHT22;1438;50.922;6.704;2022-09-27T03:27:05;9.20;99.90
2861;DHT22;1438;50.922;6.704;2022-09-27T03:29:31;9.20;99.90
2861;DHT22;1438;50.922;6.704;2022-09-27T03:31:57;9.20;99.90
2861;DHT22;1438;50.922;6.704;2022-09-27T03:34:23;9.20;99.90
2861;DHT22;1438;50.922;6.704;2022-09-27T03:36:49;9.20;99.90
2861;DHT22;1438;50.922;6.704;2022-09-27T03:39:14;9.20;99.90
2861;DHT22;1438;50.922;6.704;2022-09-27T03:41:40;9.20;99.90
2861;DHT22;1438;50.922;6.704;2022-09-27T03:44:06;9.20;99.90
2861;DHT22;1438;50.922;6.704;2022-09-27T03:46:32;9.20;99.90
2861;DHT22;1438;50.922;6.704;2022-09-27T03:48:58;9.20;99.90
2861;DHT22;1438;50.922;6.704;2022-09-27T03:51:24;9.20;99.90
2861;DHT22;1438;50.922;6.704;2022-09-27T03:53:50;9.10;99.90
2861;DHT22;1438;50.922;6.704;2022-09-27T03:56:16;9.00;99.90
2861;DHT22;1438;50.922;6.704;2022-09-27T03:58:41;9.00;99.90
2861;DHT22;1438;50.922;6.704;2022-09-27T04:01:07;9.00;99.90
2861;DHT22;1438;50.922;6.704;2022-09-27T04:03:33;8.90;99.90
2861;DHT22;1438;50.922;6.704;2022-09-27T04:06:01;8.90;99.90
2861;DHT22;1438;50.922;6.704;2022-09-27T04:08:27;8.90;99.90
2861;DHT22;1438;50.922;6.704;2022-09-27T04:10:54;9.00;99.90
2861;DHT22;1438;50.922;6.704;2022-09-27T04:13:20;9.00;99.90
2861;DHT22;1438;50.922;6.704;2022-09-27T04:15:45;9.10;99.90
2861;DHT22;1438;50.922;6.704;2022-09-27T04:18:11;9.00;99.90
2861;DHT22;1438;50.922;6.704;2022-09-27T04:20:37;9.00;99.90
2861;DHT22;1438;50.922;6.704;2022-09-27T04:23:03;9.10;99.90
2861;DHT22;1438;50.922;6.704;2022-09-27T04:25:28;9.00;99.90
2861;DHT22;1438;50.922;6.704;2022-09-27T04:27:54;9.00;99.90
2861;DHT22;1438;50.922;6.704;2022-09-27T04:30:21;8.90;99.90
2861;DHT22;1438;50.922;6.704;2022-09-27T04:32:47;8.90;99.90
2861;DHT22;1438;50.922;6.704;2022-09-27T04:35:13;8.90;99.90
2861;DHT22;1438;50.922;6.704;2022-09-27T04:37:58;8.80;99.90
2861;DHT22;1438;50.922;6.704;2022-09-27T04:40:24;8.80;99.90
2861;DHT22;1438;50.922;6.704;2022-09-27T04:42:50;8.80;99.90
2861;DHT22;1438;50.922;6.704;2022-09-27T04:45:17;8.80;99.90
2861;DHT22;1438;50.922;6.704;2022-09-27T04:47:44;8.80;99.90
2861;DHT22;1438;50.922;6.704;2022-09-27T04:50:11;8.80;99.90
2861;DHT22;1438;50.922;6.704;2022-09-27T04:52:37;8.80;99.90
2861;DHT22;1438;50.922;6.704;2022-09-27T04:55:03;8.80;99.90
2861;DHT22;1438;50.922;6.704;2022-09-27T04:57:28;8.70;99.90
2861;DHT22;1438;50.922;6.704;2022-09-27T04:59:54;8.70;99.90
2861;DHT22;1438;50.922;6.704;2022-09-27T05:02:20;8.70;99.90
2861;DHT22;1438;50.922;6.704;2022-09-27T05:04:45;8.70;99.90
2861;DHT22;1438;50.922;6.704;2022-09-27T05:07:11;8.70;99.90
2861;DHT22;1438;50.922;6.704;2022-09-27T05:09:36;8.70;99.90
2861;DHT22;1438;50.922;6.704;2022-09-27T05:12:02;8.60;99.90
2861;DHT22;1438;50.922;6.704;2022-09-27T05:14:29;8.60;99.90
2861;DHT22;1438;50.922;6.704;2022-09-27T05:16:55;8.60;99.90
2861;DHT22;1438;50.922;6.704;2022-09-27T05:19:20;8.60;99.90
2861;DHT22;1438;50.922;6.704;2022-09-27T05:21:46;8.60;99.90
2861;DHT22;1438;50.922;6.704;2022-09-27T05:24:12;8.60;99.90
2861;DHT22;1438;50.922;6.704;2022-09-27T05:26:37;8.60;99.90
2861;DHT22;1438;50.922;6.704;2022-09-27T05:29:03;8.70;99.90
2861;DHT22;1438;50.922;6.704;2022-09-27T05:31:29;8.70;99.90
2861;DHT22;1438;50.922;6.704;2022-09-27T05:33:54;8.70;99.90
2861;DHT22;1438;50.922;6.704;2022-09-27T05:36:20;8.70;99.90
2861;DHT22;1438;50.922;6.704;2022-09-27T05:38:48;8.60;99.90
2861;DHT22;1438;50.922;6.704;2022-09-27T05:41:13;8.60;99.90
2861;DHT22;1438;50.922;6.704;2022-09-27T05:43:40;8.50;99.90
2861;DHT22;1438;50.922;6.704;2022-09-27T05:46:06;8.50;99.90
2861;DHT22;1438;50.922;6.704;2022-09-27T05:48:32;8.50;99.90
2861;DHT22;1438;50.922;6.704;2022-09-27T05:50:57;8.50;99.90
2861;DHT22;1438;50.922;6.704;2022-09-27T05:53:23;8.60;99.90
2861;DHT22;1438;50.922;6.704;2022-09-27T05:55:49;8.60;99.90
2861;DHT22;1438;50.922;6.704;2022-09-27T05:58:15;8.70;99.90
2861;DHT22;1438;50.922;6.704;2022-09-27T06:00:41;8.70;99.90
2861;DHT22;1438;50.922;6.704;2022-09-27T06:03:10;8.80;99.90
2861;DHT22;1438;50.922;6.704;2022-09-27T06:05:37;8.80;99.90
2861;DHT22;1438;50.922;6.704;2022-09-27T06:08:06;8.90;99.90
2861;DHT22;1438;50.922;6.704;2022-09-27T06:10:32;8.90;99.90
2861;DHT22;1438;50.922;6.704;2022-09-27T06:13:11;9.00;99.90
2861;DHT22;1438;50.922;6.704;2022-09-27T06:15:40;9.00;99.90
2861;DHT22;1438;50.922;6.704;2022-09-27T06:18:08;9.00;99.90
2861;DHT22;1438;50.922;6.704;2022-09-27T06:20:34;9.00;99.90
2861;DHT22;1438;50.922;6.704;2022-09-27T06:25:34;9.00;99.90
2861;DHT22;1438;50.922;6.704;2022-09-27T06:28:01;9.10;99.90
2861;DHT22;1438;50.922;6.704;2022-09-27T06:30:27;9.10;99.90
2861;DHT22;1438;50.922;6.704;2022-09-27T06:33:00;9.20;99.90
2861;DHT22;1438;50.922;6.704;2022-09-27T06:35:27;9.10;99.90
2861;DHT22;1438;50.922;6.704;2022-09-27T06:37:53;9.10;99.90
2861;DHT22;1438;50.922;6.704;2022-09-27T06:40:19;9.10;99.90
2861;DHT22;1438;50.922;6.704;2022-09-27T06:42:45;9.20;99.90
2861;DHT22;1438;50.922;6.704;2022-09-27T06:45:11;9.10;99.90
2861;DHT22;1438;50.922;6.704;2022-09-27T06:47:37;9.10;99.90
2861;DHT22;1438;50.922;6.704;2022-09-27T06:50:04;9.10;99.90
2861;DHT22;1438;50.922;6.704;2022-09-27T06:52:34;9.10;99.90
2861;DHT22;1438;50.922;6.704;2022-09-27T06:55:02;9.10;99.90
2861;DHT22;1438;50.922;6.704;2022-09-27T06:57:28;9.10;99.90
2861;DHT22;1438;50.922;6.704;2022-09-27T07:00:13;9.10;99.90
2861;DHT22;1438;50.922;6.704;2022-09-27T07:02:55;9.20;99.90
2861;DHT22;1438;50.922;6.704;2022-09-27T07:05:29;9.30;99.90
2861;DHT22;1438;50.922;6.704;2022-09-27T07:07:55;9.40;99.90
2861;DHT22;1438;50.922;6.704;2022-09-27T07:10:23;9.50;99.90
2861;DHT22;1438;50.922;6.704;2022-09-27T07:12:49;9.50;99.90
2861;DHT22;1438;50.922;6.704;2022-09-27T07:15:14;9.50;99.90
2861;DHT22;1438;50.922;6.704;2022-09-27T07:17:40;9.60;99.90
2861;DHT22;1438;50.922;6.704;2022-09-27T07:20:07;9.60;99.90
2861;DHT22;1438;50.922;6.704;2022-09-27T07:22:39;9.60;99.90
2861;DHT22;1438;50.922;6.704;2022-09-27T07:25:06;9.50;99.90
2861;DHT22;1438;50.922;6.704;2022-09-27T07:34:16;9.50;99.90
2861;DHT22;1438;50.922;6.704;2022-09-27T07:36:42;9.60;99.90
2861;DHT22;1438;50.922;6.704;2022-09-27T07:39:08;9.60;99.90
2861;DHT22;1438;50.922;6.704;2022-09-27T07:41:34;9.70;99.90
2861;DHT22;1438;50.922;6.704;2022-09-27T07:44:00;9.60;99.90
2861;DHT22;1438;50.922;6.704;2022-09-27T07:46:26;9.70;99.90
2861;DHT22;1438;50.922;6.704;2022-09-27T07:48:52;9.80;99.90
2861;DHT22;1438;50.922;6.704;2022-09-27T07:51:17;9.90;99.90
2861;DHT22;1438;50.922;6.704;2022-09-27T07:53:43;9.90;99.90
2861;DHT22;1438;50.922;6.704;2022-09-27T07:56:08;9.90;99.90
2861;DHT22;1438;50.922;6.704;2022-09-27T07:58:34;9.90;99.90
2861;DHT22;1438;50.922;6.704;2022-09-27T08:01:00;9.90;99.90
2861;DHT22;1438;50.922;6.704;2022-09-27T08:03:27;9.90;99.90
2861;DHT22;1438;50.922;6.704;2022-09-27T08:05:52;9.90;99.90
2861;DHT22;1438;50.922;6.704;2022-09-27T08:08:18;9.90;99.90
2861;DHT22;1438;50.922;6.704;2022-09-27T08:10:44;9.90;99.90
2861;DHT22;1438;50.922;6.704;2022-09-27T08:13:14;9.80;99.90
2861;DHT22;1438;50.922;6.704;2022-09-27T08:15:42;9.80;99.90
2861;DHT22;1438;50.922;6.704;2022-09-27T08:18:08;9.70;99.90
2861;DHT22;1438;50.922;6.704;2022-09-27T08:20:36;9.80;99.90
2861;DHT22;1438;50.922;6.704;2022-09-27T08:23:02;9.90;99.90
2861;DHT22;1438;50.922;6.704;2022-09-27T08:25:28;9.90;99.90
2861;DHT22;1438;50.922;6.704;2022-09-27T08:27:59;10.00;99.90
2861;DHT22;1438;50.922;6.704;2022-09-27T08:30:26;10.10;99.90
2861;DHT22;1438;50.922;6.704;2022-09-27T08:32:59;10.20;99.90
2861;DHT22;1438;50.922;6.704;2022-09-27T08:35:27;10.40;99.90
2861;DHT22;1438;50.922;6.704;2022-09-27T08:37:58;10.40;99.90
2861;DHT22;1438;50.922;6.704;2022-09-27T08:48:40;10.80;99.90
2861;DHT22;1438;50.922;6.704;2022-09-27T08:51:11;11.40;99.90
2861;DHT22;1438;50.922;6.704;2022-09-27T08:53:52;11.90;99.90
2861;DHT22;1438;50.922;6.704;2022-09-27T08:56:19;12.00;99.90
2861;DHT22;1438;50.922;6.704;2022-09-27T08:58:54;11.80;99.90
2861;DHT22;1438;50.922;6.704;2022-09-27T09:01:22;11.70;99.90
2861;DHT22;1438;50.922;6.704;2022-09-27T09:03:54;11.50;99.90
2861;DHT22;1438;50.922;6.704;2022-09-27T09:31:42;11.30;99.90
2861;DHT22;1438;50.922;6.704;2022-09-27T09:34:30;11.30;99.90
2861;DHT22;1438;50.922;6.704;2022-09-27T09:37:00;11.40;99.90
2861;DHT22;1438;50.922;6.704;2022-09-27T09:39:43;11.50;99.90
2861;DHT22;1438;50.922;6.704;2022-09-27T09:42:19;11.50;99.90
2861;DHT22;1438;50.922;6.704;2022-09-27T09:45:40;11.60;99.90
2861;DHT22;1438;50.922;6.704;2022-09-27T09:47:53;11.70;99.90
2861;DHT22;1438;50.922;6.704;2022-09-27T09:50:28;11.80;99.90
2861;DHT22;1438;50.922;6.704;2022-09-27T09:53:10;11.80;99.90
2861;DHT22;1438;50.922;6.704;2022-09-27T09:55:39;11.70;99.90
2861;DHT22;1438;50.922;6.704;2022-09-27T10:01:20;11.60;99.90
2861;DHT22;1438;50.922;6.704;2022-09-27T10:03:47;11.50;99.90
2861;DHT22;1438;50.922;6.704;2022-09-27T10:06:14;11.40;99.90
2861;DHT22;1438;50.922;6.704;2022-09-27T10:08:40;11.50;99.90
2861;DHT22;1438;50.922;6.704;2022-09-27T10:11:15;11.50;99.90
2861;DHT22;1438;50.922;6.704;2022-09-27T10:13:42;11.60;99.90
2861;DHT22;1438;50.922;6.704;2022-09-27T10:16:10;11.60;99.90
2861;DHT22;1438;50.922;6.704;2022-09-27T10:18:38;11.60;99.90
2861;DHT22;1438;50.922;6.704;2022-09-27T10:21:18;11.80;99.90
2861;DHT22;1438;50.922;6.704;2022-09-27T10:24:16;11.80;99.90
2861;DHT22;1438;50.922;6.704;2022-09-27T10:26:46;11.90;99.90
2861;DHT22;1438;50.922;6.704;2022-09-27T10:31:46;12.10;99.90
2861;DHT22;1438;50.922;6.704;2022-09-27T10:34:40;12.00;99.90
2861;DHT22;1438;50.922;6.704;2022-09-27T10:37:15;11.90;99.90
2861;DHT22;1438;50.922;6.704;2022-09-27T10:39:43;11.80;99.90
2861;DHT22;1438;50.922;6.704;2022-09-27T10:42:20;11.80;99.90
2861;DHT22;1438;50.922;6.704;2022-09-27T10:44:46;11.70;99.90
2861;DHT22;1438;50.922;6.704;2022-09-27T10:47:16;11.70;99.90
2861;DHT22;1438;50.922;6.704;2022-09-27T10:49:48;11.60;99.90
2861;DHT22;1438;50.922;6.704;2022-09-27T10:57:23;11.30;99.90
2861;DHT22;1438;50.922;6.704;2022-09-27T11:00:23;11.30;99.90
2861;DHT22;1438;50.922;6.704;2022-09-27T11:02:55;11.40;99.90
2861;DHT22;1438;50.922;6.704;2022-09-27T11:07:54;11.60;99.90
2861;DHT22;1438;50.922;6.704;2022-09-27T11:10:31;11.80;99.90
2861;DHT22;1438;50.922;6.704;2022-09-27T11:16:09;12.10;99.90
2861;DHT22;1438;50.922;6.704;2022-09-27T11:21:49;12.10;99.90
2861;DHT22;1438;50.922;6.704;2022-09-27T11:30:08;12.40;99.90
2861;DHT22;1438;50.922;6.704;2022-09-27T11:35:45;12.60;99.90
2861;DHT22;1438;50.922;6.704;2022-09-27T11:38:27;12.60;99.90
2861;DHT22;1438;50.922;6.704;2022-09-27T11:46:37;12.90;99.90
2861;DHT22;1438;50.922;6.704;2022-09-27T11:54:44;12.90;99.90
2861;DHT22;1438;50.922;6.704;2022-09-27T12:10:46;11.90;99.90
2861;DHT22;1438;50.922;6.704;2022-09-27T12:13:14;11.90;99.90
2861;DHT22;1438;50.922;6.704;2022-09-27T12:15:43;11.90;99.90
2861;DHT22;1438;50.922;6.704;2022-09-27T12:18:21;11.90;99.90
2861;DHT22;1438;50.922;6.704;2022-09-27T12:20:49;11.90;99.90
2861;DHT22;1438;50.922;6.704;2022-09-27T12:23:22;11.80;99.90
2861;DHT22;1438;50.922;6.704;2022-09-27T12:25:55;11.90;99.90
2861;DHT22;1438;50.922;6.704;2022-09-27T12:31:39;12.00;99.90
2861;DHT22;1438;50.922;6.704;2022-09-27T12:43:13;11.50;99.90
2861;DHT22;1438;50.922;6.704;2022-09-27T12:46:07;11.20;99.90
2861;DHT22;1438;50.922;6.704;2022-09-27T12:48:48;10.80;99.90
2861;DHT22;1438;50.922;6.704;2022-09-27T12:51:21;10.50;99.90
2861;DHT22;1438;50.922;6.704;2022-09-27T12:59:26;9.90;99.90
2861;DHT22;1438;50.922;6.704;2022-09-27T13:13:00;9.80;99.90
2861;DHT22;1438;50.922;6.704;2022-09-27T13:15:33;9.70;99.90
2861;DHT22;1438;50.922;6.704;2022-09-27T13:18:03;9.30;99.90
2861;DHT22;1438;50.922;6.704;2022-09-27T13:20:37;9.10;99.90
2861;DHT22;1438;50.922;6.704;2022-09-27T13:25:57;9.00;99.90
2861;DHT22;1438;50.922;6.704;2022-09-27T13:31:10;9.00;99.90
2861;DHT22;1438;50.922;6.704;2022-09-27T13:33:48;9.10;99.90
2861;DHT22;1438;50.922;6.704;2022-09-27T13:49:54;9.70;99.90
2861;DHT22;1438;50.922;6.704;2022-09-27T13:52:35;9.70;99.90
2861;DHT22;1438;50.922;6.704;2022-09-27T13:55:06;9.70;99.90
2861;DHT22;1438;50.922;6.704;2022-09-27T13:57:46;9.70;99.90
2861;DHT22;1438;50.922;6.704;2022-09-27T14:00:23;9.90;99.90
2861;DHT22;1438;50.922;6.704;2022-09-27T14:06:03;10.00;99.90
2861;DHT22;1438;50.922;6.704;2022-09-27T14:08:43;10.00;99.90
2861;DHT22;1438;50.922;6.704;2022-09-27T14:11:13;10.10;99.90
2861;DHT22;1438;50.922;6.704;2022-09-27T14:13:42;10.10;99.90
2861;DHT22;1438;50.922;6.704;2022-09-27T14:16:11;10.10;99.90
2861;DHT22;1438;50.922;6.704;2022-09-27T14:18:47;10.20;99.90
2861;DHT22;1438;50.922;6.704;2022-09-27T14:23:50;10.40;99.90
2861;DHT22;1438;50.922;6.704;2022-09-27T14:26:25;10.60;99.90
2861;DHT22;1438;50.922;6.704;2022-09-27T14:28:51;10.70;99.90
2861;DHT22;1438;50.922;6.704;2022-09-27T14:31:21;10.80;99.90
2861;DHT22;1438;50.922;6.704;2022-09-27T14:33:48;10.90;99.90
2861;DHT22;1438;50.922;6.704;2022-09-27T14:36:24;10.90;99.90
2861;DHT22;1438;50.922;6.704;2022-09-27T14:39:14;11.20;99.90
2861;DHT22;1438;50.922;6.704;2022-09-27T14:41:40;11.40;99.90
2861;DHT22;1438;50.922;6.704;2022-09-27T14:44:14;11.50;99.90
2861;DHT22;1438;50.922;6.704;2022-09-27T14:46:40;11.50;99.90
2861;DHT22;1438;50.922;6.704;2022-09-27T14:49:21;11.50;99.90
2861;DHT22;1438;50.922;6.704;2022-09-27T14:51:55;11.40;99.90
2861;DHT22;1438;50.922;6.704;2022-09-27T14:54:26;11.30;99.90
2861;DHT22;1438;50.922;6.704;2022-09-27T14:56:54;11.30;99.90
2861;DHT22;1438;50.922;6.704;2022-09-27T14:59:32;11.10;99.90
2861;DHT22;1438;50.922;6.704;2022-09-27T15:02:08;11.00;99.90
2861;DHT22;1438;50.922;6.704;2022-09-27T15:04:35;10.90;99.90
2861;DHT22;1438;50.922;6.704;2022-09-27T15:07:01;10.70;99.90
2861;DHT22;1438;50.922;6.704;2022-09-27T15:09:27;10.40;99.90
2861;DHT22;1438;50.922;6.704;2022-09-27T15:11:57;10.10;99.90
2861;DHT22;1438;50.922;6.704;2022-09-27T15:14:25;9.80;99.90
2861;DHT22;1438;50.922;6.704;2022-09-27T15:16:54;9.60;99.90
2861;DHT22;1438;50.922;6.704;2022-09-27T15:19:24;9.50;99.90
2861;DHT22;1438;50.922;6.704;2022-09-27T15:21:51;9.40;99.90
2861;DHT22;1438;50.922;6.704;2022-09-27T15:24:42;9.40;99.90
2861;DHT22;1438;50.922;6.704;2022-09-27T15:27:22;9.40;99.90
2861;DHT22;1438;50.922;6.704;2022-09-27T15:29:50;9.60;99.90
2861;DHT22;1438;50.922;6.704;2022-09-27T15:32:19;9.70;99.90
2861;DHT22;1438;50.922;6.704;2022-09-27T15:34:47;9.80;99.90
2861;DHT22;1438;50.922;6.704;2022-09-27T15:37:34;9.80;99.90
2861;DHT22;1438;50.922;6.704;2022-09-27T15:42:55;9.90;99.90
2861;DHT22;1438;50.922;6.704;2022-09-27T15:45:33;10.10;99.90
2861;DHT22;1438;50.922;6.704;2022-09-27T15:48:19;10.40;99.90
2861;DHT22;1438;50.922;6.704;2022-09-27T15:50:46;10.50;99.90
2861;DHT22;1438;50.922;6.704;2022-09-27T15:56:05;10.40;99.90
2861;DHT22;1438;50.922;6.704;2022-09-27T15:58:31;10.30;99.90
2861;DHT22;1438;50.922;6.704;2022-09-27T16:01:03;10.30;99.90
2861;DHT22;1438;50.922;6.704;2022-09-27T16:03:30;10.30;99.90
2861;DHT22;1438;50.922;6.704;2022-09-27T16:05:57;10.40;99.90
2861;DHT22;1438;50.922;6.704;2022-09-27T16:08:25;10.40;99.90
2861;DHT22;1438;50.922;6.704;2022-09-27T16:10:54;10.40;99.90
2861;DHT22;1438;50.922;6.704;2022-09-27T16:13:20;10.30;99.90
2861;DHT22;1438;50.922;6.704;2022-09-27T16:15:46;10.30;99.90
2861;DHT22;1438;50.922;6.704;2022-09-27T16:18:13;10.30;99.90
2861;DHT22;1438;50.922;6.704;2022-09-27T16:20:39;10.30;99.90
2861;DHT22;1438;50.922;6.704;2022-09-27T16:23:05;10.30;99.90
2861;DHT22;1438;50.922;6.704;2022-09-27T16:25:31;10.40;99.90
2861;DHT22;1438;50.922;6.704;2022-09-27T16:27:58;10.50;99.90
2861;DHT22;1438;50.922;6.704;2022-09-27T16:30:23;10.50;99.90
2861;DHT22;1438;50.922;6.704;2022-09-27T16:32:49;10.50;99.90
2861;DHT22;1438;50.922;6.704;2022-09-27T16:35:16;10.40;99.90
2861;DHT22;1438;50.922;6.704;2022-09-27T16:37:42;10.20;99.90
2861;DHT22;1438;50.922;6.704;2022-09-27T16:40:09;10.20;99.90
2861;DHT22;1438;50.922;6.704;2022-09-27T16:42:35;10.20;99.90
2861;DHT22;1438;50.922;6.704;2022-09-27T16:45:02;10.20;99.90
2861;DHT22;1438;50.922;6.704;2022-09-27T16:47:28;10.10;99.90
2861;DHT22;1438;50.922;6.704;2022-09-27T16:49:54;10.10;99.90
2861;DHT22;1438;50.922;6.704;2022-09-27T16:52:39;10.10;99.90
2861;DHT22;1438;50.922;6.704;2022-09-27T16:55:06;10.10;99.90
2861;DHT22;1438;50.922;6.704;2022-09-27T16:57:32;10.00;99.90
2861;DHT22;1438;50.922;6.704;2022-09-27T16:59:59;10.00;99.90
2861;DHT22;1438;50.922;6.704;2022-09-27T17:02:26;9.90;99.90
2861;DHT22;1438;50.922;6.704;2022-09-27T17:04:52;9.90;99.90
2861;DHT22;1438;50.922;6.704;2022-09-27T17:07:18;9.90;99.90
2861;DHT22;1438;50.922;6.704;2022-09-27T17:09:44;9.90;99.90
2861;DHT22;1438;50.922;6.704;2022-09-27T17:12:10;9.90;99.90
2861;DHT22;1438;50.922;6.704;2022-09-27T17:14:36;9.90;99.90
2861;DHT22;1438;50.922;6.704;2022-09-27T17:17:02;9.80;99.90
2861;DHT22;1438;50.922;6.704;2022-09-27T17:19:27;9.70;99.90
2861;DHT22;1438;50.922;6.704;2022-09-27T17:21:53;9.70;99.90
2861;DHT22;1438;50.922;6.704;2022-09-27T17:24:21;9.80;99.90
2861;DHT22;1438;50.922;6.704;2022-09-27T17:26:47;9.70;99.90
2861;DHT22;1438;50.922;6.704;2022-09-27T17:29:13;9.70;99.90
2861;DHT22;1438;50.922;6.704;2022-09-27T17:31:40;9.70;99.90
2861;DHT22;1438;50.922;6.704;2022-09-27T17:34:08;9.60;99.90
2861;DHT22;1438;50.922;6.704;2022-09-27T17:36:40;9.70;99.90
2861;DHT22;1438;50.922;6.704;2022-09-27T17:39:10;9.70;99.90
2861;DHT22;1438;50.922;6.704;2022-09-27T17:41:36;9.60;99.90
2861;DHT22;1438;50.922;6.704;2022-09-27T17:44:03;9.60;99.90
2861;DHT22;1438;50.922;6.704;2022-09-27T17:46:34;9.50;99.90
2861;DHT22;1438;50.922;6.704;2022-09-27T17:49:00;9.50;99.90
2861;DHT22;1438;50.922;6.704;2022-09-27T17:51:46;9.60;99.90
2861;DHT22;1438;50.922;6.704;2022-09-27T17:54:12;9.70;99.90
2861;DHT22;1438;50.922;6.704;2022-09-27T17:56:39;9.60;99.90
2861;DHT22;1438;50.922;6.704;2022-09-27T17:59:06;9.60;99.90
2861;DHT22;1438;50.922;6.704;2022-09-27T18:01:33;9.60;99.90
2861;DHT22;1438;50.922;6.704;2022-09-27T18:04:00;9.60;99.90
2861;DHT22;1438;50.922;6.704;2022-09-27T18:06:26;9.60;99.90
2861;DHT22;1438;50.922;6.704;2022-09-27T18:08:53;9.50;99.90
2861;DHT22;1438;50.922;6.704;2022-09-27T18:11:20;9.60;99.90
2861;DHT22;1438;50.922;6.704;2022-09-27T18:13:56;9.50;99.90
2861;DHT22;1438;50.922;6.704;2022-09-27T18:16:26;9.50;99.90
2861;DHT22;1438;50.922;6.704;2022-09-27T18:18:55;9.50;99.90
2861;DHT22;1438;50.922;6.704;2022-09-27T18:21:22;9.50;99.90
2861;DHT22;1438;50.922;6.704;2022-09-27T18:23:49;9.40;99.90
2861;DHT22;1438;50.922;6.704;2022-09-27T18:26:18;9.30;99.90
2861;DHT22;1438;50.922;6.704;2022-09-27T18:28:47;9.30;99.90
2861;DHT22;1438;50.922;6.704;2022-09-27T18:31:15;9.30;99.90
2861;DHT22;1438;50.922;6.704;2022-09-27T18:33:41;9.30;99.90
2861;DHT22;1438;50.922;6.704;2022-09-27T18:38:39;9.20;99.90
2861;DHT22;1438;50.922;6.704;2022-09-27T18:41:12;9.20;99.90
2861;DHT22;1438;50.922;6.704;2022-09-27T18:43:39;9.20;99.90
2861;DHT22;1438;50.922;6.704;2022-09-27T18:46:07;9.10;99.90
2861;DHT22;1438;50.922;6.704;2022-09-27T18:48:34;9.10;99.90
2861;DHT22;1438;50.922;6.704;2022-09-27T18:51:08;9.20;99.90
2861;DHT22;1438;50.922;6.704;2022-09-27T18:53:35;9.30;99.90
2861;DHT22;1438;50.922;6.704;2022-09-27T18:56:03;9.30;99.90
2861;DHT22;1438;50.922;6.704;2022-09-27T18:58:29;9.20;99.90
2861;DHT22;1438;50.922;6.704;2022-09-27T19:00:58;9.20;99.90
2861;DHT22;1438;50.922;6.704;2022-09-27T19:03:24;9.20;99.90
2861;DHT22;1438;50.922;6.704;2022-09-27T19:05:54;9.20;99.90
2861;DHT22;1438;50.922;6.704;2022-09-27T19:08:19;9.20;99.90
2861;DHT22;1438;50.922;6.704;2022-09-27T19:10:45;9.20;99.90
2861;DHT22;1438;50.922;6.704;2022-09-27T19:13:10;9.30;99.90
2861;DHT22;1438;50.922;6.704;2022-09-27T19:15:36;9.30;99.90
2861;DHT22;1438;50.922;6.704;2022-09-27T19:18:02;9.30;99.90
2861;DHT22;1438;50.922;6.704;2022-09-27T19:20:27;9.30;99.90
2861;DHT22;1438;50.922;6.704;2022-09-27T19:22:54;9.30;99.90
2861;DHT22;1438;50.922;6.704;2022-09-27T19:25:20;9.30;99.90
2861;DHT22;1438;50.922;6.704;2022-09-27T19:27:46;9.40;99.90
2861;DHT22;1438;50.922;6.704;2022-09-27T19:30:12;9.30;99.90
2861;DHT22;1438;50.922;6.704;2022-09-27T19:32:37;9.10;99.90
2861;DHT22;1438;50.922;6.704;2022-09-27T19:35:03;9.10;99.90
2861;DHT22;1438;50.922;6.704;2022-09-27T19:37:29;9.00;99.90
2861;DHT22;1438;50.922;6.704;2022-09-27T19:39:55;9.10;99.90
2861;DHT22;1438;50.922;6.704;2022-09-27T19:42:20;9.00;99.90
2861;DHT22;1438;50.922;6.704;2022-09-27T19:44:46;9.00;99.90
2861;DHT22;1438;50.922;6.704;2022-09-27T19:47:11;9.00;99.90
2861;DHT22;1438;50.922;6.704;2022-09-27T19:49:37;9.00;99.90